Terminal Aerodrome Forecast
Issued by NWS Grand Junction, CO

Home | Current Version | Previous Version | Text Only | Print | Product List | Glossary On
Versions: 1 2 3 4 5 6 7 8 9 10 11 12 13 14 15 16 17 18 19 20 21 22 23 24 25 26 27 28 29 30 31 32 33 34 35 36 37 38 39 40
000
FTUS45 KGJT 231409 AAC
TAFGJT
TAF AMD
KGJT 231409Z 2314/2412 10012KT P6SM VCSH FEW060 FEW070 BKN090
      TEMPO 2316/2318 -SHSN SCT035 BKN050
     FM231800 19009KT P6SM VCSH SCT025 BKN045
     FM232000 27011KT 4SM -SHRASN SCT030 OVC045
     FM240100 35004KT 4SM -SHSN SCT035 OVC050
     FM240400 34004KT P6SM VCSH SCT035 OVC045=

USA.gov is the U.S. government's official web portal to all federal, state and local government web resources and services.